createdAt,value
2022-07-31T00:00:47.952Z,96802.44
2022-07-31T00:03:16.896Z,96803.44
2022-07-31T00:05:45.257Z,96772.13
2022-07-31T00:08:15.603Z,96819.44
2022-07-31T00:10:43.857Z,96752.69
2022-07-31T00:13:12.058Z,96792.41
2022-07-31T00:15:41.629Z,96802.44
2022-07-31T00:18:09.897Z,96809.41
2022-07-31T00:20:38.404Z,96807.56
2022-07-31T00:23:06.676Z,96816.53
2022-07-31T00:25:34.950Z,96774.16
2022-07-31T00:28:08.288Z,96782.94
2022-07-31T00:30:36.620Z,96760.84
2022-07-31T00:33:06.934Z,96800.13
2022-07-31T00:35:36.063Z,96820.41
2022-07-31T00:38:26.122Z,96805.44
2022-07-31T00:40:53.829Z,96774.28
2022-07-31T00:43:22.826Z,96753.84
2022-07-31T00:45:59.010Z,96804.34
2022-07-31T00:48:29.000Z,96787.72
2022-07-31T00:50:58.214Z,96795.09
2022-07-31T00:53:26.652Z,96831.09
2022-07-31T00:55:57.020Z,96806.56
2022-07-31T00:58:25.925Z,96805.31
2022-07-31T01:00:54.675Z,96810.16
2022-07-31T01:03:23.390Z,96721.38
2022-07-31T01:05:53.020Z,96799.13
2022-07-31T01:08:21.277Z,96756.97
2022-07-31T01:10:57.507Z,96739.41
2022-07-31T01:13:34.061Z,96821.56
2022-07-31T01:16:04.773Z,96792.88
2022-07-31T01:18:38.369Z,96763.81
2022-07-31T01:21:13.064Z,96769.09
2022-07-31T01:24:08.563Z,96797.75
2022-07-31T01:27:04.150Z,96762.28
2022-07-31T01:29:39.077Z,96806.66
2022-07-31T01:32:13.319Z,96766.09
2022-07-31T01:34:45.786Z,96766.59
2022-07-31T01:37:22.947Z,96794.53
2022-07-31T01:39:57.239Z,96778.19
2022-07-31T01:42:26.928Z,96816.75
2022-07-31T01:45:01.602Z,96804.06
2022-07-31T01:47:32.300Z,96768.03
2022-07-31T01:50:04.836Z,96743.81
2022-07-31T01:52:35.757Z,96797.75
2022-07-31T01:55:06.707Z,96747.84
2022-07-31T01:57:36.314Z,96807.59
2022-07-31T02:00:33.645Z,96771.88
2022-07-31T02:05:54.159Z,96757.81
2022-07-31T02:08:24.098Z,96773.16
2022-07-31T02:10:55.850Z,96756.72
2022-07-31T02:13:25.789Z,96803.00
2022-07-31T02:15:57.454Z,96691.38
2022-07-31T02:18:52.485Z,96763.44
2022-07-31T02:21:26.500Z,96794.63
2022-07-31T02:23:55.073Z,96753.94
2022-07-31T02:26:24.034Z,96740.56
2022-07-31T02:28:53.643Z,96745.50
2022-07-31T02:31:24.549Z,96800.22
2022-07-31T02:33:54.691Z,96778.47
2022-07-31T02:36:23.739Z,96791.97
2022-07-31T02:38:54.969Z,96777.22
2022-07-31T02:41:26.094Z,96814.72
2022-07-31T02:43:54.825Z,96764.47
2022-07-31T02:46:28.117Z,96767.22
2022-07-31T02:48:57.987Z,96763.19
2022-07-31T02:51:26.587Z,96762.28
2022-07-31T02:53:56.099Z,96783.91
2022-07-31T02:56:27.326Z,96754.63
2022-07-31T02:58:55.697Z,96774.19
2022-07-31T03:01:28.865Z,96757.19
2022-07-31T03:03:57.944Z,96790.94
2022-07-31T03:06:29.434Z,96769.81
2022-07-31T03:08:57.657Z,96774.59
2022-07-31T03:11:26.787Z,96772.97
2022-07-31T03:13:58.292Z,96683.88
2022-07-31T03:16:29.401Z,96775.13
2022-07-31T03:18:59.303Z,96799.06
2022-07-31T03:21:27.852Z,96742.97
2022-07-31T03:23:56.304Z,96765.81
2022-07-31T03:26:24.852Z,96745.09
2022-07-31T03:28:53.052Z,96882.25
2022-07-31T03:31:21.655Z,96774.53
2022-07-31T03:33:51.213Z,96764.00
2022-07-31T03:36:19.538Z,96736.97
2022-07-31T03:38:50.613Z,96749.44
2022-07-31T03:41:31.223Z,96780.94
2022-07-31T03:44:00.100Z,96806.16
2022-07-31T03:46:28.501Z,96774.84
2022-07-31T03:48:58.523Z,96714.47
2022-07-31T03:51:28.739Z,96742.78
2022-07-31T03:53:57.212Z,96781.59
2022-07-31T03:56:50.134Z,96697.59
2022-07-31T03:59:21.587Z,96722.69
2022-07-31T04:01:57.882Z,96715.59
2022-07-31T04:05:10.027Z,96745.41
2022-07-31T04:07:40.522Z,96762.41
2022-07-31T04:10:10.435Z,96777.56
2022-07-31T04:12:39.418Z,96778.84
2022-07-31T04:15:08.801Z,96776.75
2022-07-31T04:17:37.781Z,96788.25
2022-07-31T04:20:11.437Z,96783.41
2022-07-31T04:22:40.325Z,96735.47
2022-07-31T04:25:16.296Z,96773.97
2022-07-31T04:27:50.769Z,96802.50
2022-07-31T04:30:19.164Z,96748.44
2022-07-31T04:32:48.472Z,96770.41
2022-07-31T04:35:23.258Z,96800.22
2022-07-31T04:37:51.707Z,96801.47
2022-07-31T04:40:21.917Z,96832.84
2022-07-31T04:42:50.242Z,96796.91
2022-07-31T04:45:18.810Z,96794.00
2022-07-31T04:47:47.040Z,96776.72
2022-07-31T04:50:15.680Z,96764.19
2022-07-31T04:52:58.011Z,96745.47
2022-07-31T04:55:30.197Z,96782.09
2022-07-31T04:57:58.384Z,96760.13
2022-07-31T05:00:27.240Z,96781.41
2022-07-31T05:02:56.131Z,96769.06
2022-07-31T05:05:24.939Z,96794.00
2022-07-31T05:07:53.076Z,96807.50
2022-07-31T05:10:48.425Z,96789.97
2022-07-31T05:13:16.742Z,96816.00
2022-07-31T05:15:45.061Z,96811.97
2022-07-31T05:18:13.317Z,96847.69
2022-07-31T05:21:00.197Z,96695.09
2022-07-31T05:23:50.595Z,96792.59
2022-07-31T05:26:29.009Z,96820.19
2022-07-31T05:28:59.802Z,96784.31
2022-07-31T05:31:28.795Z,96775.25
2022-07-31T05:33:59.140Z,96783.09
2022-07-31T05:36:27.827Z,96817.56
2022-07-31T05:38:56.334Z,96777.22
2022-07-31T05:41:41.193Z,96761.91
2022-07-31T05:44:15.099Z,96738.81
2022-07-31T05:49:20.595Z,96743.00
2022-07-31T05:51:54.503Z,96745.09
2022-07-31T05:54:23.280Z,96807.66
2022-07-31T05:57:11.494Z,96808.56
2022-07-31T05:59:59.760Z,96811.94
2022-07-31T06:03:03.934Z,96858.03
2022-07-31T06:05:57.549Z,96787.13
2022-07-31T06:08:26.308Z,96737.31
2022-07-31T06:10:55.113Z,96741.03
2022-07-31T06:13:27.431Z,96809.75
2022-07-31T06:15:56.634Z,96799.03
2022-07-31T06:18:25.469Z,96778.41
2022-07-31T06:20:53.740Z,96812.47
2022-07-31T06:23:29.778Z,96774.19
2022-07-31T06:26:17.056Z,96763.53
2022-07-31T06:28:49.215Z,96846.72
2022-07-31T06:31:20.545Z,96803.91
2022-07-31T06:33:51.047Z,96787.50
2022-07-31T06:36:22.043Z,96799.19
2022-07-31T06:38:57.840Z,96730.53
2022-07-31T06:41:47.287Z,96785.09
2022-07-31T06:44:33.716Z,96785.28
2022-07-31T06:47:18.634Z,96771.28
2022-07-31T06:50:12.106Z,96821.72
2022-07-31T06:52:53.196Z,96816.13
2022-07-31T06:55:24.167Z,96787.72
2022-07-31T06:57:52.569Z,96797.72
2022-07-31T07:00:22.175Z,96725.66
2022-07-31T07:02:52.649Z,96813.88
2022-07-31T07:05:21.655Z,96798.63
2022-07-31T07:07:53.136Z,96786.88
2022-07-31T07:10:21.529Z,96798.00
2022-07-31T07:13:09.958Z,96796.34
2022-07-31T07:15:39.624Z,96779.28
2022-07-31T07:18:08.295Z,96771.88
2022-07-31T07:20:42.462Z,96774.84
2022-07-31T07:23:10.694Z,96772.84
2022-07-31T07:25:47.727Z,96785.63
2022-07-31T07:28:30.476Z,96841.00
2022-07-31T07:31:02.753Z,96803.22
2022-07-31T07:33:40.674Z,96805.72
2022-07-31T07:36:22.499Z,96779.50
2022-07-31T07:38:55.938Z,96787.81
2022-07-31T07:41:25.539Z,96790.94
2022-07-31T07:43:54.197Z,96794.38
2022-07-31T07:46:26.675Z,96823.94
2022-07-31T07:49:00.268Z,96718.22
2022-07-31T07:51:59.273Z,96749.00
2022-07-31T07:54:43.104Z,96744.34
2022-07-31T07:57:30.354Z,96777.22
2022-07-31T08:00:18.945Z,96733.25
2022-07-31T08:03:46.721Z,96763.47
2022-07-31T08:05:47.100Z,96776.06
2022-07-31T08:08:15.521Z,96663.53
2022-07-31T08:11:04.892Z,96748.19
2022-07-31T08:13:57.592Z,96781.66
2022-07-31T08:16:37.749Z,96812.97
2022-07-31T08:19:09.016Z,96774.31
2022-07-31T08:21:37.602Z,96785.38
2022-07-31T08:24:06.184Z,96805.56
2022-07-31T08:26:48.500Z,96773.88
2022-07-31T08:29:16.809Z,96764.88
2022-07-31T08:31:58.205Z,96758.19
2022-07-31T08:34:58.516Z,96750.38
2022-07-31T08:38:01.187Z,96749.91
2022-07-31T08:40:15.319Z,96749.81
2022-07-31T08:42:46.273Z,96760.47
2022-07-31T08:45:15.792Z,96757.84
2022-07-31T08:47:58.197Z,96754.34
2022-07-31T08:50:32.768Z,96786.16
2022-07-31T08:53:04.481Z,96755.22
2022-07-31T08:55:56.215Z,96755.84
2022-07-31T08:58:26.891Z,96770.94
2022-07-31T09:00:55.906Z,96768.88
2022-07-31T09:03:24.438Z,96736.44
2022-07-31T09:06:01.893Z,96785.25
2022-07-31T09:08:33.767Z,96725.81
2022-07-31T09:11:07.363Z,96771.66
2022-07-31T09:14:01.439Z,96804.09
2022-07-31T09:16:47.642Z,96768.44
2022-07-31T09:19:51.174Z,96737.41
2022-07-31T09:22:23.803Z,96747.34
2022-07-31T09:24:53.193Z,96882.81
2022-07-31T09:27:29.451Z,96746.28
2022-07-31T09:29:59.933Z,96721.84
2022-07-31T09:32:51.102Z,96742.81
2022-07-31T09:35:39.828Z,96714.22
2022-07-31T09:38:11.344Z,96731.41
2022-07-31T09:41:53.495Z,96789.28
2022-07-31T09:44:13.593Z,96743.84
2022-07-31T09:46:44.528Z,96733.31
2022-07-31T09:49:13.434Z,96748.69
2022-07-31T09:51:44.958Z,96686.31
2022-07-31T09:54:27.418Z,96627.78
2022-07-31T09:57:13.096Z,96725.59
2022-07-31T09:59:52.941Z,96727.78
2022-07-31T10:02:22.371Z,96623.72
2022-07-31T10:04:55.843Z,96670.41
2022-07-31T10:07:32.762Z,96695.78
2022-07-31T10:10:26.263Z,96684.53
2022-07-31T10:13:04.828Z,96720.41
2022-07-31T10:15:34.595Z,96708.81
2022-07-31T10:18:36.152Z,96688.63
2022-07-31T10:21:29.421Z,96729.69
2022-07-31T10:24:09.577Z,96702.47
2022-07-31T10:26:59.928Z,96680.34
2022-07-31T10:29:32.935Z,96693.25
2022-07-31T10:32:04.061Z,96724.22
2022-07-31T10:34:35.444Z,96666.06
2022-07-31T10:37:33.116Z,96715.34
2022-07-31T10:40:26.938Z,96741.16
2022-07-31T10:43:19.324Z,96666.69
2022-07-31T10:46:03.512Z,96650.84
2022-07-31T10:48:54.579Z,96672.53
2022-07-31T10:51:49.552Z,96638.47
2022-07-31T10:54:42.473Z,96658.06
2022-07-31T10:57:32.502Z,96676.31
2022-07-31T11:00:41.027Z,96656.34
2022-07-31T11:03:27.863Z,96668.22
2022-07-31T11:06:41.104Z,96692.69
2022-07-31T11:09:50.613Z,96673.78
2022-07-31T11:13:01.485Z,96692.69
2022-07-31T11:16:05.399Z,96611.88
2022-07-31T11:18:58.652Z,96650.47
2022-07-31T11:21:38.864Z,96627.78
2022-07-31T11:24:15.225Z,96678.31
2022-07-31T11:26:50.734Z,96651.28
2022-07-31T11:30:00.006Z,96649.16
2022-07-31T11:32:25.910Z,96615.38
2022-07-31T11:34:56.940Z,96650.53
2022-07-31T11:37:34.302Z,96654.88
2022-07-31T11:40:15.623Z,96618.91
2022-07-31T11:42:46.125Z,96602.41
2022-07-31T11:45:15.400Z,96647.34
2022-07-31T11:48:11.531Z,96651.09
2022-07-31T11:50:41.541Z,96654.59
2022-07-31T11:53:09.973Z,96597.84
2022-07-31T11:55:50.473Z,96615.94
2022-07-31T11:58:20.737Z,96616.53
2022-07-31T12:00:51.784Z,96600.28
2022-07-31T12:03:26.525Z,96608.94
2022-07-31T12:05:55.089Z,96600.81
2022-07-31T12:08:25.222Z,96606.97
2022-07-31T12:10:54.678Z,96543.63
2022-07-31T12:13:24.464Z,96587.75
2022-07-31T12:16:01.147Z,96605.06
2022-07-31T12:18:33.963Z,96589.47
2022-07-31T12:21:04.874Z,96616.50
2022-07-31T12:23:43.535Z,96602.88
2022-07-31T12:26:17.163Z,96599.25
2022-07-31T12:28:45.431Z,96584.66
2022-07-31T12:31:13.785Z,96634.16
2022-07-31T12:33:45.738Z,96544.44
2022-07-31T12:36:16.451Z,96576.53
2022-07-31T12:38:48.335Z,96527.13
2022-07-31T12:41:18.049Z,96586.69
2022-07-31T12:43:51.317Z,96534.16
2022-07-31T12:46:22.794Z,96223.09
2022-07-31T12:48:52.518Z,96620.56
2022-07-31T12:51:44.807Z,96546.75
2022-07-31T12:54:10.491Z,96614.22
2022-07-31T12:56:40.928Z,96552.88
2022-07-31T12:59:10.323Z,96598.34
2022-07-31T13:01:39.075Z,96537.22
2022-07-31T13:04:19.145Z,96562.91
2022-07-31T13:06:51.504Z,96538.03
2022-07-31T13:09:20.999Z,96529.84
2022-07-31T13:11:52.128Z,96544.44
2022-07-31T13:14:24.479Z,96538.06
2022-07-31T13:16:55.036Z,96530.94
2022-07-31T13:19:24.867Z,96579.09
2022-07-31T13:21:56.865Z,96530.50
2022-07-31T13:24:25.786Z,96512.66
2022-07-31T13:26:54.073Z,96579.72
2022-07-31T13:29:22.351Z,96557.00
2022-07-31T13:31:50.667Z,96576.75
2022-07-31T13:34:19.031Z,96531.31
2022-07-31T13:36:48.637Z,96530.94
2022-07-31T13:39:17.111Z,96512.09
2022-07-31T13:41:45.357Z,96540.19
2022-07-31T13:44:13.624Z,96526.13
2022-07-31T13:46:41.908Z,96540.81
2022-07-31T13:49:11.602Z,96553.59
2022-07-31T13:51:40.222Z,96529.69
2022-07-31T13:54:10.058Z,96532.56
2022-07-31T13:56:43.005Z,96513.56
2022-07-31T13:59:14.058Z,96516.56
2022-07-31T14:02:04.782Z,96517.63
2022-07-31T14:04:38.619Z,96505.94
2022-07-31T14:07:09.151Z,96482.69
2022-07-31T14:09:39.016Z,96522.25
2022-07-31T14:12:15.525Z,96413.66
2022-07-31T14:14:43.720Z,96459.44
2022-07-31T14:17:11.923Z,96489.50
2022-07-31T14:19:44.347Z,96495.00
2022-07-31T14:22:14.327Z,96500.41
2022-07-31T14:24:49.931Z,96498.50
2022-07-31T14:27:20.709Z,96478.22
2022-07-31T14:29:49.334Z,96484.03
2022-07-31T14:32:19.241Z,96418.59
2022-07-31T14:34:47.651Z,96449.78
2022-07-31T14:37:15.950Z,96521.28
2022-07-31T14:39:45.800Z,96465.47
2022-07-31T14:42:14.335Z,96493.56
2022-07-31T14:44:43.009Z,96516.63
2022-07-31T14:47:12.174Z,96449.97
2022-07-31T14:50:07.493Z,96447.16
2022-07-31T14:52:29.135Z,96464.34
2022-07-31T14:54:59.708Z,96409.72
2022-07-31T14:57:28.182Z,96456.63
2022-07-31T14:59:56.799Z,96428.50
2022-07-31T15:02:25.468Z,96458.31
2022-07-31T15:04:54.481Z,96457.19
2022-07-31T15:07:45.830Z,96428.91
2022-07-31T15:10:13.321Z,96410.94
2022-07-31T15:12:41.773Z,96362.13
2022-07-31T15:15:12.002Z,96406.13
2022-07-31T15:17:40.283Z,96400.81
2022-07-31T15:20:09.713Z,96474.38
2022-07-31T15:22:37.958Z,96468.09
2022-07-31T15:25:07.861Z,96455.03
2022-07-31T15:27:37.892Z,96448.56
2022-07-31T15:30:08.135Z,96446.16
2022-07-31T15:32:38.315Z,96364.63
2022-07-31T15:35:09.493Z,96427.72
2022-07-31T15:37:39.893Z,96444.88
2022-07-31T15:40:13.289Z,96376.91
2022-07-31T15:42:46.581Z,96426.25
2022-07-31T15:45:17.495Z,96418.03
2022-07-31T15:47:47.385Z,96449.50
2022-07-31T15:50:18.752Z,96444.44
2022-07-31T15:52:47.431Z,96404.63
2022-07-31T15:55:16.936Z,96445.69
2022-07-31T15:57:47.171Z,96452.34
2022-07-31T16:00:16.559Z,96401.16
2022-07-31T16:02:45.657Z,96445.81
2022-07-31T16:05:21.798Z,96437.72
2022-07-31T16:08:30.445Z,96360.09
2022-07-31T16:10:54.475Z,96424.81
2022-07-31T16:13:25.135Z,96351.75
2022-07-31T16:15:54.244Z,96425.91
2022-07-31T16:18:22.588Z,96336.63
2022-07-31T16:20:50.971Z,96400.19
2022-07-31T16:23:19.334Z,96375.09
2022-07-31T16:25:47.789Z,96435.66
2022-07-31T16:28:16.118Z,96364.91
2022-07-31T16:30:46.677Z,96372.00
2022-07-31T16:33:15.386Z,96414.81
2022-07-31T16:35:43.978Z,96399.34
2022-07-31T16:38:12.415Z,96345.84
2022-07-31T16:40:41.024Z,96402.59
2022-07-31T16:43:47.713Z,96393.69
2022-07-31T16:45:59.628Z,96399.47
2022-07-31T16:48:28.089Z,96424.31
2022-07-31T16:50:56.324Z,96361.59
2022-07-31T16:54:10.989Z,96390.75
2022-07-31T16:56:13.666Z,96404.75
2022-07-31T16:58:43.810Z,96397.47
2022-07-31T17:01:59.429Z,96367.03
2022-07-31T17:04:04.451Z,96389.13
2022-07-31T17:06:36.187Z,96377.78
2022-07-31T17:09:17.405Z,96360.41
2022-07-31T17:11:48.429Z,96402.59
2022-07-31T17:14:17.448Z,96400.38
2022-07-31T17:16:50.173Z,96412.34
2022-07-31T17:19:42.389Z,96396.16
2022-07-31T17:22:11.133Z,96343.97
2022-07-31T17:24:40.631Z,96384.41
2022-07-31T17:27:10.374Z,96363.03
2022-07-31T17:29:39.533Z,96370.53
2022-07-31T17:32:11.377Z,96366.84
2022-07-31T17:34:40.443Z,96410.13
2022-07-31T17:37:09.282Z,96311.03
2022-07-31T17:39:37.802Z,96361.75
2022-07-31T17:42:06.664Z,96335.00
2022-07-31T17:44:38.222Z,96379.06
2022-07-31T17:47:10.093Z,96385.50
2022-07-31T17:49:38.913Z,96383.97
2022-07-31T17:52:07.624Z,96356.91
2022-07-31T17:54:35.944Z,96377.22
2022-07-31T17:57:05.059Z,96384.78
2022-07-31T17:59:34.002Z,96432.91
2022-07-31T18:02:26.653Z,96411.53
2022-07-31T18:04:56.372Z,96359.34
2022-07-31T18:07:25.613Z,96342.97
2022-07-31T18:09:53.783Z,96376.91
2022-07-31T18:12:24.334Z,96398.28
2022-07-31T18:14:52.846Z,96389.94
2022-07-31T18:17:21.869Z,96383.72
2022-07-31T18:19:52.603Z,96374.28
2022-07-31T18:22:22.260Z,96351.59
2022-07-31T18:24:50.581Z,96412.13
2022-07-31T18:27:18.950Z,96422.38
2022-07-31T18:29:54.324Z,96376.47
2022-07-31T18:32:24.323Z,96404.59
2022-07-31T18:34:52.712Z,96387.84
2022-07-31T18:37:22.326Z,96392.16
2022-07-31T18:39:50.661Z,96374.34
2022-07-31T18:42:18.913Z,96392.19
2022-07-31T18:44:47.288Z,96405.16
2022-07-31T18:47:15.628Z,96347.34
2022-07-31T18:50:59.790Z,96395.94
2022-07-31T18:52:33.677Z,96364.38
2022-07-31T18:55:01.957Z,96383.00
2022-07-31T18:57:30.602Z,96419.72
2022-07-31T18:59:58.827Z,96432.41
2022-07-31T19:02:28.059Z,96389.19
2022-07-31T19:04:56.516Z,96399.72
2022-07-31T19:07:25.612Z,96347.91
2022-07-31T19:09:55.517Z,96416.47
2022-07-31T19:12:24.126Z,96407.78
2022-07-31T19:14:52.388Z,96344.34
2022-07-31T19:17:21.598Z,96423.94
2022-07-31T19:19:54.956Z,96421.19
2022-07-31T19:22:28.696Z,96416.25
2022-07-31T19:24:58.383Z,96448.88
2022-07-31T19:27:48.525Z,96447.31
2022-07-31T19:30:15.698Z,96433.03
2022-07-31T19:32:44.314Z,96379.50
2022-07-31T19:35:12.569Z,96406.44
2022-07-31T19:37:40.905Z,96424.56
2022-07-31T19:40:12.082Z,96445.81
2022-07-31T19:42:40.483Z,96379.00
2022-07-31T19:45:09.759Z,96401.50
2022-07-31T19:47:38.321Z,96375.56
2022-07-31T19:50:08.146Z,96380.34
2022-07-31T19:52:36.353Z,96406.44
2022-07-31T19:55:05.062Z,96470.66
2022-07-31T19:57:34.684Z,96394.19
2022-07-31T20:00:03.117Z,96399.56
2022-07-31T20:02:37.376Z,96450.91
2022-07-31T20:05:07.289Z,96474.16
2022-07-31T20:07:36.540Z,96438.94
2022-07-31T20:10:06.515Z,96418.19
2022-07-31T20:12:36.141Z,96367.09
2022-07-31T20:15:04.749Z,96439.41
2022-07-31T20:17:32.965Z,96443.44
2022-07-31T20:20:02.818Z,96458.25
2022-07-31T20:22:44.361Z,96452.97
2022-07-31T20:25:20.063Z,96323.09
2022-07-31T20:27:50.523Z,96464.88
2022-07-31T20:30:21.773Z,96460.16
2022-07-31T20:32:50.347Z,96451.50
2022-07-31T20:35:29.066Z,96424.63
2022-07-31T20:38:09.030Z,96440.75
2022-07-31T20:40:52.851Z,96430.91
2022-07-31T20:43:24.518Z,96343.88
2022-07-31T20:45:54.051Z,96339.09
2022-07-31T20:48:24.530Z,96438.97
2022-07-31T20:50:53.294Z,96438.75
2022-07-31T20:53:23.048Z,96438.81
2022-07-31T20:55:56.421Z,96444.84
2022-07-31T20:58:28.383Z,96404.13
2022-07-31T21:01:01.518Z,96427.28
2022-07-31T21:03:29.932Z,96472.38
2022-07-31T21:05:58.206Z,96437.53
2022-07-31T21:08:26.863Z,96469.63
2022-07-31T21:10:55.338Z,96391.69
2022-07-31T21:13:23.874Z,96418.72
2022-07-31T21:15:53.749Z,96434.88
2022-07-31T21:18:23.014Z,96421.38
2022-07-31T21:20:53.730Z,96432.94
2022-07-31T21:23:24.204Z,96448.81
2022-07-31T21:25:53.946Z,96452.22
2022-07-31T21:28:23.552Z,96440.50
2022-07-31T21:30:56.235Z,96379.28
2022-07-31T21:33:25.600Z,96481.72
2022-07-31T21:35:54.512Z,96350.69
2022-07-31T21:38:23.386Z,96443.03
2022-07-31T21:40:53.891Z,96386.69
2022-07-31T21:43:23.104Z,96464.94
2022-07-31T21:45:57.256Z,96455.47
2022-07-31T21:48:31.381Z,96450.56
2022-07-31T21:51:00.823Z,96444.38
2022-07-31T21:53:29.142Z,96411.75
2022-07-31T21:56:00.492Z,96438.19
2022-07-31T21:58:28.794Z,96409.72
2022-07-31T22:00:58.445Z,96439.44
2022-07-31T22:03:26.798Z,96414.50
2022-07-31T22:06:26.116Z,96446.47
2022-07-31T22:08:54.624Z,96424.78
2022-07-31T22:11:23.058Z,96506.03
2022-07-31T22:13:51.295Z,96424.38
2022-07-31T22:16:20.933Z,96478.78
2022-07-31T22:18:50.091Z,96471.75
2022-07-31T22:21:19.578Z,96443.69
2022-07-31T22:23:48.302Z,96436.59
2022-07-31T22:26:16.901Z,96453.38
2022-07-31T22:28:45.937Z,96471.78
2022-07-31T22:31:14.763Z,96359.31
2022-07-31T22:33:44.719Z,96477.03
2022-07-31T22:36:13.298Z,96447.13
2022-07-31T22:38:45.036Z,96483.94
2022-07-31T22:41:14.354Z,96449.94
2022-07-31T22:44:11.996Z,96425.75
2022-07-31T22:46:32.719Z,96458.44
2022-07-31T22:49:04.136Z,96451.72
2022-07-31T22:51:36.649Z,96452.91
2022-07-31T22:54:06.660Z,96438.22
2022-07-31T22:56:34.931Z,96460.75
2022-07-31T22:59:03.209Z,96497.16
2022-07-31T23:01:31.406Z,96444.22
2022-07-31T23:03:59.608Z,96473.75
2022-07-31T23:06:32.285Z,96503.34
2022-07-31T23:09:02.338Z,96483.75
2022-07-31T23:11:30.658Z,96515.66
2022-07-31T23:13:58.948Z,96454.50
2022-07-31T23:16:27.690Z,96496.44
2022-07-31T23:18:56.301Z,96461.06
2022-07-31T23:21:24.908Z,96500.44
2022-07-31T23:23:54.578Z,96485.13
2022-07-31T23:26:25.463Z,96473.94
2022-07-31T23:28:55.637Z,96474.75
2022-07-31T23:31:24.699Z,96419.72
2022-07-31T23:33:53.930Z,96503.78
2022-07-31T23:36:23.062Z,96481.53
2022-07-31T23:38:51.896Z,96520.16
2022-07-31T23:41:35.461Z,96436.09
2022-07-31T23:44:04.936Z,96490.00
2022-07-31T23:46:33.425Z,96452.63
2022-07-31T23:49:02.688Z,96491.03
2022-07-31T23:51:30.939Z,96385.56
2022-07-31T23:53:59.158Z,96524.56
2022-07-31T23:56:28.695Z,96445.41
2022-07-31T23:58:56.937Z,96449.84
